Time;durP1;ratioP1;P1;durP2;ratioP2;P2;SDS_P1;SDS_P2;PMS_P1;PMS_P2;Temp;Humidity;BMP_temperature;BMP_pressure;BME280_temperature;BME280_humidity;BME280_pressure;Samples;Min_cycle;Max_cycle;Signal;HPM_P1;HPM_P2
2022/12/26 00:00:29;;;;;;;3.20;0.63;;;;;;;7.89;82.80;98961.19;5059372;28;20119;-60
2022/12/26 00:02:56;;;;;;;5.53;0.80;;;;;;;7.89;83.05;98964.66;5064606;28;20619;-60
2022/12/26 00:05:23;;;;;;;6.00;0.98;;;;;;;7.87;83.06;98965.53;5056570;28;20427;-61
2022/12/26 00:07:50;;;;;;;3.35;0.70;;;;;;;7.84;83.31;98964.69;5065186;28;20070;-59
2022/12/26 00:10:16;;;;;;;4.43;0.93;;;;;;;7.85;82.94;98960.38;5056113;28;20118;-61
2022/12/26 00:12:43;;;;;;;11.38;1.00;;;;;;;7.88;83.48;98960.38;5061088;28;20044;-59
2022/12/26 00:15:10;;;;;;;3.63;1.05;;;;;;;7.91;83.27;98949.16;5061712;28;20133;-59
2022/12/26 00:17:37;;;;;;;8.60;0.95;;;;;;;7.91;82.12;98952.56;5063353;28;20044;-60
2022/12/26 00:20:04;;;;;;;4.93;1.23;;;;;;;7.91;82.98;98952.56;5050318;28;20072;-62
2022/12/26 00:22:31;;;;;;;5.28;0.98;;;;;;;7.91;82.21;98944.84;5053212;28;20446;-59
2022/12/26 00:24:57;;;;;;;5.75;1.02;;;;;;;7.89;82.57;98944.03;5061953;28;20052;-60
2022/12/26 00:27:24;;;;;;;4.32;0.82;;;;;;;7.87;83.29;98932.84;5061912;28;20131;-58
2022/12/26 00:29:50;;;;;;;5.85;0.80;;;;;;;7.93;83.05;98935.38;5060852;28;20496;-60
2022/12/26 00:32:17;;;;;;;2.83;0.60;;;;;;;7.93;83.25;98931.94;5055498;28;20045;-61
2022/12/26 00:34:43;;;;;;;6.32;0.47;;;;;;;7.94;82.53;98931.94;5051288;28;20057;-58
2022/12/26 00:37:10;;;;;;;4.25;0.80;;;;;;;8.00;82.53;98927.59;5036033;28;20106;-60
2022/12/26 00:39:37;;;;;;;4.30;0.80;;;;;;;8.01;81.96;98924.16;5036767;28;20063;-60
2022/12/26 00:42:03;;;;;;;3.63;1.20;;;;;;;8.04;82.44;98929.28;5059936;28;20076;-60
2022/12/26 00:44:30;;;;;;;4.60;1.17;;;;;;;8.07;82.88;98919.75;5054929;28;20063;-61
2022/12/26 00:46:56;;;;;;;6.50;0.80;;;;;;;8.12;82.83;98917.16;5059911;28;20049;-59
2022/12/26 00:49:23;;;;;;;6.80;1.27;;;;;;;8.17;82.44;98915.34;5056671;28;20083;-59
2022/12/26 00:51:50;;;;;;;4.93;0.77;;;;;;;8.18;81.92;98924.78;5054135;28;20052;-58
2022/12/26 00:54:17;;;;;;;4.32;0.85;;;;;;;8.13;82.48;98929.16;5062386;28;20052;-59
2022/12/26 00:56:44;;;;;;;5.90;0.68;;;;;;;8.23;81.90;98923.03;5064288;28;20057;-58
2022/12/26 00:59:11;;;;;;;5.85;1.20;;;;;;;8.27;82.71;98925.59;5063672;28;20068;-60
2022/12/26 01:01:38;;;;;;;9.40;1.10;;;;;;;8.30;82.60;98920.38;5065525;28;20045;-61
2022/12/26 01:04:05;;;;;;;6.20;0.90;;;;;;;8.31;82.21;98912.63;5060376;28;20679;-60
2022/12/26 01:06:31;;;;;;;6.47;1.30;;;;;;;8.33;82.23;98916.03;5064299;28;20533;-59
2022/12/26 01:08:58;;;;;;;8.25;0.93;;;;;;;8.40;81.80;98915.94;5061188;28;20124;-61
2022/12/26 01:11:40;;;;;;;10.88;0.90;;;;;;;8.44;81.90;98910.75;5052220;28;20055;-61
2022/12/26 01:16:45;;;;;;;4.07;1.10;;;;;;;8.45;81.74;98902.13;5028189;27;20766;-62
2022/12/26 01:19:12;;;;;;;7.15;1.88;;;;;;;8.46;81.51;98901.28;5013231;28;20046;-62
2022/12/26 01:21:41;;;;;;;5.75;2.15;;;;;;;8.47;81.91;98912.44;5012707;28;20049;-60
2022/12/26 01:24:08;;;;;;;3.53;1.17;;;;;;;8.53;81.52;98916.66;5013345;28;20513;-59
2022/12/26 01:26:35;;;;;;;5.32;2.08;;;;;;;8.52;81.81;98909.81;5012550;28;20161;-61
2022/12/26 01:29:02;;;;;;;4.22;1.50;;;;;;;8.51;81.86;98916.69;5017013;28;20058;-62
2022/12/26 01:31:28;;;;;;;9.98;1.60;;;;;;;8.53;81.34;98908.91;5023150;28;20052;-59
2022/12/26 01:33:55;;;;;;;5.20;1.92;;;;;;;8.47;81.26;98897.81;5015423;28;20050;-61
2022/12/26 01:36:22;;;;;;;8.80;1.40;;;;;;;8.48;81.31;98917.56;5009030;28;20076;-59
2022/12/26 01:38:48;;;;;;;3.83;1.98;;;;;;;8.48;81.50;98925.31;5022328;28;20042;-62
2022/12/26 01:41:15;;;;;;;3.13;1.52;;;;;;;8.52;81.98;98915.81;5011696;28;20077;-59
2022/12/26 01:49:36;;;;;;;8.00;1.55;;;;;;;8.49;81.41;98927.00;5092753;27;20410;-60
2022/12/26 01:52:07;;;;;;;3.90;0.52;;;;;;;8.62;81.03;98937.25;5055949;28;20101;-61
2022/12/26 01:54:37;;;;;;;5.32;1.05;;;;;;;8.65;81.50;98941.50;5098897;27;20071;-62
2022/12/26 01:57:16;;;;;;;6.88;0.85;;;;;;;8.56;81.14;98942.47;5113549;28;20082;-60
2022/12/26 01:59:45;;;;;;;2.97;1.40;;;;;;;8.63;81.62;98948.41;5112351;28;20047;-59
2022/12/26 02:02:12;;;;;;;3.20;1.05;;;;;;;8.59;81.93;98948.47;5113403;27;20082;-59
2022/12/26 02:07:36;;;;;;;5.53;1.10;;;;;;;8.59;81.76;98973.41;5116092;28;20119;-60
2022/12/26 02:10:08;;;;;;;3.30;0.55;;;;;;;8.59;81.14;98973.41;5120516;27;20065;-62
2022/12/26 02:12:36;;;;;;;8.18;1.05;;;;;;;8.56;80.78;98973.44;5111407;27;20052;-60
2022/12/26 02:15:11;;;;;;;5.80;0.82;;;;;;;8.51;81.12;98975.19;5111910;28;20517;-62
2022/12/26 02:17:38;;;;;;;5.97;1.25;;;;;;;8.49;81.37;98991.53;5116008;27;20062;-60
2022/12/26 02:20:27;;;;;;;1.25;0.50;;;;;;;8.39;81.46;98992.53;5117561;27;20571;-61
2022/12/26 02:34:26;;;;;;;2.50;0.30;;;;;;;8.42;80.89;99033.78;5029189;28;20403;-60
2022/12/26 02:39:59;;;;;;;0.82;0.57;;;;;;;8.16;79.28;99083.03;5040286;28;20406;-60
2022/12/26 03:13:09;;;;;;;0.35;0.28;;;;;;;6.75;76.21;99155.03;5026120;28;20053;-60
2022/12/26 03:15:00;;;;;;;2.40;2.15;;;;;;;5.43;73.75;99227.59;5001792;28;20513;-60
2022/12/26 03:17:33;;;;;;;0.55;0.52;;;;;;;5.23;73.84;99228.31;5001636;28;20500;-58
2022/12/26 03:20:07;;;;;;;1.80;1.52;;;;;;;5.14;74.24;99230.00;4995619;28;20046;-59
2022/12/26 03:27:55;;;;;;;0.52;0.32;;;;;;;5.04;73.99;99258.16;5067215;27;20404;-60
2022/12/26 03:34:15;;;;;;;0.88;0.63;;;;;;;4.95;73.60;99275.22;5005255;28;20045;-61
2022/12/26 03:35:55;;;;;;;2.00;1.10;;;;;;;4.89;73.04;99281.16;5020917;28;20515;-59
2022/12/26 03:38:33;;;;;;;0.85;0.57;;;;;;;4.79;73.58;99294.75;5018011;28;20111;-60
2022/12/26 04:44:17;;;;;;;2.15;1.95;;;;;;;3.95;73.37;99509.16;5017176;28;20636;-60
2022/12/26 04:46:46;;;;;;;1.45;1.35;;;;;;;3.95;73.78;99507.44;5018237;28;20120;-58
2022/12/26 04:52:08;;;;;;;4.65;1.75;;;;;;;3.90;73.97;99524.44;5014959;28;20103;-59
2022/12/26 04:54:35;;;;;;;6.38;1.67;;;;;;;3.86;73.89;99523.50;5020047;28;20096;-58
2022/12/26 04:57:02;;;;;;;2.40;1.38;;;;;;;3.85;73.99;99524.34;5033383;28;20085;-60
2022/12/26 04:59:29;;;;;;;4.40;1.35;;;;;;;3.80;74.19;99520.88;5035344;28;20168;-58
2022/12/26 05:10:24;;;;;;;12.85;2.60;;;;;;;3.69;74.56;99532.63;5025066;28;20135;-60
2022/12/26 05:12:51;;;;;;;2.60;1.73;;;;;;;3.66;74.75;99537.69;5026631;28;20041;-58
2022/12/26 05:15:19;;;;;;;2.50;1.60;;;;;;;3.61;75.10;99542.72;5024853;28;20045;-61
2022/12/26 05:29:02;;;;;;;2.47;2.33;;;;;;;3.45;75.00;99577.47;5019903;28;20073;-60
2022/12/26 05:31:29;;;;;;;3.65;1.80;;;;;;;3.41;75.27;99578.25;5022183;28;20053;-60
2022/12/26 05:34:06;;;;;;;1.63;1.52;;;;;;;3.39;75.71;99580.78;5025767;28;20124;-60
2022/12/26 05:36:40;;;;;;;4.25;1.63;;;;;;;3.37;75.87;99595.22;5018576;28;20085;-58
2022/12/26 05:39:08;;;;;;;2.15;1.55;;;;;;;3.34;75.70;99607.97;5014303;28;20061;-58
2022/12/26 05:41:36;;;;;;;4.22;0.93;;;;;;;3.36;76.17;99615.66;5021732;28;20452;-58
2022/12/26 05:44:03;;;;;;;6.20;3.00;;;;;;;3.33;75.92;99622.47;5022182;28;20092;-60
2022/12/26 05:46:29;;;;;;;3.97;1.13;;;;;;;3.32;76.28;99628.41;5018052;28;20127;-57
2022/12/26 05:48:56;;;;;;;5.10;1.65;;;;;;;3.30;76.04;99642.88;5015823;28;20081;-61
2022/12/26 05:51:23;;;;;;;4.32;0.50;;;;;;;3.28;76.53;99644.53;5023631;28;20500;-59
2022/12/26 05:53:50;;;;;;;2.45;1.85;;;;;;;3.29;76.45;99653.97;5020725;28;20045;-60
2022/12/26 05:56:18;;;;;;;1.85;1.42;;;;;;;3.29;75.83;99666.75;5020314;28;20046;-59
2022/12/26 05:58:46;;;;;;;1.40;1.27;;;;;;;3.30;76.52;99672.72;5024951;28;20132;-58
2022/12/26 06:01:15;;;;;;;0.65;0.30;;;;;;;3.28;75.89;99675.25;5016272;28;20418;-58
2022/12/26 06:03:46;;;;;;;2.00;1.23;;;;;;;3.27;75.85;99675.25;5021758;28;20064;-57
2022/12/26 06:06:14;;;;;;;2.33;1.40;;;;;;;3.25;76.20;99670.09;5023345;28;20144;-59
2022/12/26 06:08:41;;;;;;;1.42;1.25;;;;;;;3.25;76.02;99675.22;5018475;28;20873;-57
2022/12/26 06:11:11;;;;;;;4.20;1.75;;;;;;;3.22;76.75;99680.25;5020052;28;20111;-60
2022/12/26 06:13:39;;;;;;;4.63;1.35;;;;;;;3.19;76.93;99672.50;5022487;28;20033;-59
2022/12/26 06:16:08;;;;;;;6.63;1.45;;;;;;;3.17;76.09;99676.72;5019823;28;20049;-58
2022/12/26 06:18:35;;;;;;;4.40;1.15;;;;;;;3.14;76.62;99666.44;5021547;28;20060;-59
2022/12/26 06:21:04;;;;;;;2.63;1.55;;;;;;;3.12;76.21;99673.22;5020784;28;20046;-58
2022/12/26 06:23:31;;;;;;;3.15;1.60;;;;;;;3.09;76.61;99676.56;5022167;28;20053;-59
2022/12/26 06:25:57;;;;;;;1.55;1.45;;;;;;;3.07;77.08;99686.78;5018095;28;20673;-60
2022/12/26 06:28:24;;;;;;;1.70;1.55;;;;;;;3.06;76.50;99695.28;5022128;28;20099;-60
2022/12/26 06:30:51;;;;;;;4.22;0.30;;;;;;;3.05;77.31;99698.69;5021385;28;20721;-59
2022/12/26 06:33:19;;;;;;;2.60;1.65;;;;;;;3.03;76.63;99705.44;5021798;28;20057;-59
2022/12/26 06:35:45;;;;;;;3.67;1.45;;;;;;;3.03;77.11;99710.56;5020729;28;20052;-59
2022/12/26 06:38:12;;;;;;;3.80;1.60;;;;;;;3.02;76.57;99713.97;5020956;28;20050;-57
2022/12/26 06:40:40;;;;;;;7.53;1.60;;;;;;;3.01;77.25;99721.59;5018110;28;20069;-60
2022/12/26 06:43:07;;;;;;;6.00;1.27;;;;;;;3.01;77.28;99721.59;5021244;28;20049;-60
2022/12/26 06:45:34;;;;;;;5.85;1.67;;;;;;;2.98;76.85;99727.53;5021268;28;20046;-60
2022/12/26 06:48:01;;;;;;;9.32;2.50;;;;;;;2.98;77.44;99740.31;5025191;28;20053;-57
2022/12/26 06:50:28;;;;;;;7.55;1.77;;;;;;;2.97;76.51;99740.28;5016373;28;20045;-59
2022/12/26 06:52:54;;;;;;;3.17;1.42;;;;;;;2.97;77.57;99736.00;5021992;28;20072;-58
2022/12/26 06:55:21;;;;;;;4.95;1.42;;;;;;;2.95;76.99;99747.91;5021215;28;20069;-59
2022/12/26 06:57:50;;;;;;;3.05;1.70;;;;;;;2.95;77.51;99753.03;5018311;28;20139;-57
2022/12/26 07:00:17;;;;;;;2.83;1.67;;;;;;;2.92;77.66;99743.59;5017698;28;20054;-60
2022/12/26 07:02:48;;;;;;;6.07;1.77;;;;;;;2.93;76.87;99744.44;4999232;28;20096;-59
2022/12/26 07:05:15;;;;;;;3.00;1.20;;;;;;;2.92;77.27;99752.94;5017485;28;20041;-59
2022/12/26 07:07:41;;;;;;;2.40;1.40;;;;;;;2.90;77.62;99750.34;5019339;28;20136;-58
2022/12/26 07:10:08;;;;;;;1.67;1.58;;;;;;;2.90;76.83;99749.50;5016420;28;20134;-58
2022/12/26 07:12:35;;;;;;;5.25;1.40;;;;;;;2.89;77.53;99757.97;5021543;28;20115;-58
2022/12/26 07:15:02;;;;;;;2.55;1.77;;;;;;;2.88;77.03;99762.25;5020872;28;20131;-59
2022/12/26 07:17:28;;;;;;;1.58;1.27;;;;;;;2.88;77.02;99771.63;5023042;28;20348;-57
2022/12/26 07:19:55;;;;;;;1.27;1.08;;;;;;;2.87;77.69;99778.41;5020341;28;20087;-56
2022/12/26 07:22:21;;;;;;;2.38;1.40;;;;;;;2.85;77.37;99781.75;5019010;28;20073;-57
2022/12/26 07:24:48;;;;;;;3.95;1.67;;;;;;;2.85;77.33;99794.56;5021178;28;20103;-58
2022/12/26 07:27:14;;;;;;;2.17;1.25;;;;;;;2.80;77.95;99800.41;5015492;28;20073;-60
2022/12/26 07:29:41;;;;;;;1.73;1.30;;;;;;;2.81;77.34;99803.84;5017796;28;20049;-58
2022/12/26 07:32:07;;;;;;;4.30;2.17;;;;;;;2.81;77.35;99809.81;5022370;28;20041;-59
2022/12/26 07:34:34;;;;;;;3.00;1.48;;;;;;;2.77;77.22;99813.13;5019646;28;20069;-58
2022/12/26 07:37:01;;;;;;;1.50;1.40;;;;;;;2.79;77.42;99824.28;5016784;28;20091;-59
2022/12/26 07:39:27;;;;;;;2.08;1.60;;;;;;;2.76;77.13;99819.06;5019738;28;20137;-58
2022/12/26 07:41:57;;;;;;;1.95;1.35;;;;;;;2.76;78.13;99824.19;5019240;28;20116;-59
2022/12/26 07:44:25;;;;;;;2.30;1.45;;;;;;;2.74;77.11;99813.06;5017117;28;20132;-58
2022/12/26 07:46:52;;;;;;;1.48;1.38;;;;;;;2.73;77.00;99829.22;5017103;28;20099;-58
2022/12/26 07:49:18;;;;;;;2.90;1.90;;;;;;;2.73;76.96;99829.22;5019843;28;20045;-57
2022/12/26 07:51:45;;;;;;;2.55;2.20;;;;;;;2.70;77.28;99829.13;5021300;28;20571;-59
2022/12/26 07:54:12;;;;;;;3.22;2.28;;;;;;;2.70;77.85;99839.38;5017955;28;20069;-59
2022/12/26 07:56:39;;;;;;;3.22;2.55;;;;;;;2.69;77.35;99838.53;5020628;28;20050;-57
2022/12/26 07:59:07;;;;;;;4.95;3.05;;;;;;;2.67;77.82;99840.16;5014350;28;20767;-59
2022/12/26 08:01:33;;;;;;;8.10;4.10;;;;;;;2.67;77.45;99849.53;5018512;28;20050;-58
2022/12/26 08:04:00;;;;;;;24.98;8.75;;;;;;;2.65;77.78;99851.19;5013810;28;20046;-58
2022/12/26 08:06:27;;;;;;;15.32;5.30;;;;;;;2.63;77.23;99857.97;5023860;28;20065;-59
2022/12/26 08:08:53;;;;;;;22.13;7.78;;;;;;;2.63;77.85;99852.84;5018274;28;20077;-59
2022/12/26 08:11:22;;;;;;;18.38;5.97;;;;;;;2.61;77.59;99869.81;5016023;28;20081;-59
2022/12/26 08:13:50;;;;;;;20.30;7.32;;;;;;;2.61;77.57;99869.81;5017711;28;20041;-57
2022/12/26 08:16:18;;;;;;;21.23;7.55;;;;;;;2.60;77.17;99878.34;5016762;28;20060;-57
2022/12/26 08:18:44;;;;;;;14.18;5.80;;;;;;;2.59;76.73;99886.81;5016539;28;20083;-58
2022/12/26 08:21:12;;;;;;;13.07;5.40;;;;;;;2.59;76.40;99886.81;5013529;28;20519;-58
2022/12/26 08:23:38;;;;;;;12.70;6.20;;;;;;;2.60;76.92;99893.69;5018431;28;20069;-59
2022/12/26 08:26:08;;;;;;;21.27;8.70;;;;;;;2.64;77.74;99900.59;5018596;28;20513;-59
2022/12/26 08:28:34;;;;;;;15.40;7.75;;;;;;;2.70;77.26;99903.31;5014666;28;20073;-59
2022/12/26 08:31:10;;;;;;;17.30;8.07;;;;;;;2.81;77.03;99909.59;5015676;28;20053;-57
2022/12/26 08:33:37;;;;;;;5.72;3.58;;;;;;;2.93;76.65;99914.16;5019665;28;20049;-58
2022/12/26 08:36:06;;;;;;;8.20;2.80;;;;;;;3.07;76.41;99922.19;5014657;28;20152;-59
2022/12/26 08:38:32;;;;;;;4.38;3.58;;;;;;;3.30;76.75;99918.47;5013178;28;20057;-57
2022/12/26 08:40:59;;;;;;;5.85;4.13;;;;;;;3.63;76.62;99912.47;5017842;28;20060;-60
2022/12/26 08:43:26;;;;;;;4.43;2.35;;;;;;;3.97;76.55;99923.47;5018278;28;20053;-59
2022/12/26 08:46:13;;;;;;;7.43;2.53;;;;;;;4.41;75.89;99918.38;5013847;28;20129;-59
2022/12/26 08:48:40;;;;;;;4.45;2.67;;;;;;;4.75;74.78;99925.06;5019714;28;20132;-58
2022/12/26 08:51:12;;;;;;;2.40;2.20;;;;;;;5.09;74.19;99935.09;5021956;28;20095;-59
2022/12/26 08:53:40;;;;;;;7.47;2.15;;;;;;;5.40;74.61;99935.63;5021138;28;20042;-59
2022/12/26 08:56:11;;;;;;;4.55;2.92;;;;;;;5.72;73.85;99943.81;5017291;28;20049;-60
2022/12/26 08:58:37;;;;;;;1.85;1.55;;;;;;;6.16;73.65;99958.19;5026704;28;20052;-61
2022/12/26 09:01:07;;;;;;;3.38;2.17;;;;;;;6.70;73.40;99965.75;5020517;28;20042;-59
2022/12/26 09:03:33;;;;;;;4.22;1.80;;;;;;;7.24;73.26;99970.59;5018731;28;20049;-58
2022/12/26 09:06:01;;;;;;;1.92;1.60;;;;;;;7.61;71.25;99967.50;5021501;28;20045;-60
2022/12/26 09:08:33;;;;;;;3.17;2.65;;;;;;;7.99;70.45;99973.78;5019085;28;20052;-60
2022/12/26 09:11:02;;;;;;;5.45;2.35;;;;;;;8.30;71.08;99978.25;5032666;28;20050;-56
2022/12/26 09:13:29;;;;;;;4.03;1.92;;;;;;;8.65;70.46;99980.16;5020509;28;20626;-60
2022/12/26 09:16:04;;;;;;;5.18;0.77;;;;;;;9.07;69.14;99982.03;5020401;28;20452;-58
2022/12/26 09:18:30;;;;;;;2.70;2.47;;;;;;;9.58;69.14;99984.69;5016322;28;20042;-60
2022/12/26 09:21:00;;;;;;;4.88;2.28;;;;;;;10.08;67.52;99983.78;5017619;28;20046;-57
2022/12/26 09:23:28;;;;;;;3.42;2.28;;;;;;;10.59;67.26;99975.03;5020137;28;20104;-59
2022/12/26 09:25:55;;;;;;;3.92;0.77;;;;;;;10.92;66.28;99980.94;5016113;28;20806;-58
2022/12/26 09:28:21;;;;;;;4.53;2.72;;;;;;;11.14;66.06;99988.59;5025861;28;20049;-58
2022/12/26 09:30:48;;;;;;;7.70;3.03;;;;;;;11.50;66.24;99988.34;5018121;28;20140;-59
2022/12/26 09:33:15;;;;;;;3.63;1.00;;;;;;;11.76;64.94;99992.47;5022499;28;20049;-59
2022/12/26 09:35:41;;;;;;;9.20;2.00;;;;;;;12.11;65.27;99998.25;5019060;28;20588;-57
2022/12/26 09:38:08;;;;;;;5.07;1.27;;;;;;;12.56;64.78;100005.56;5019074;28;20099;-59
2022/12/26 09:41:07;;;;;;;5.90;2.20;;;;;;;13.06;63.87;100011.00;5012996;28;20045;-61
2022/12/26 09:46:33;;;;;;;5.00;1.85;;;;;;;13.82;60.72;100022.03;5036261;27;20402;-57
2022/12/26 09:49:19;;;;;;;;;;;;;;;14.20;62.47;100039.63;5010704;28;20051;-59
2022/12/26 09:51:54;;;;;;;4.75;1.60;;;;;;;14.63;60.45;100045.78;5020002;28;19934;-60
2022/12/26 09:54:40;;;;;;;6.90;2.70;;;;;;;15.01;59.98;100056.34;4987995;28;20101;-57
2022/12/26 09:57:15;;;;;;;3.05;1.67;;;;;;;15.36;59.30;100059.06;4999842;28;20140;-62
2022/12/26 09:59:51;;;;;;;6.57;2.75;;;;;;;15.74;58.77;100066.94;4999906;28;20553;-60
2022/12/26 10:02:20;;;;;;;7.28;1.95;;;;;;;16.04;57.28;100059.25;4999763;28;20073;-58
2022/12/26 10:04:47;;;;;;;3.90;2.33;;;;;;;16.33;57.40;100075.94;5004684;28;20042;-59
2022/12/26 10:07:39;;;;;;;3.47;1.65;;;;;;;16.57;56.42;100077.06;5002390;28;20128;-57
2022/12/26 10:10:12;;;;;;;6.50;2.42;;;;;;;16.86;56.42;100081.50;4998061;28;20053;-59
2022/12/26 10:15:58;;;;;;;3.35;1.50;;;;;;;17.18;53.70;100070.13;5050910;28;22241;-58
2022/12/26 10:18:43;;;;;;;5.85;3.10;;;;;;;17.30;52.91;100073.28;5000874;28;20077;-59
2022/12/26 10:23:53;;;;;;;8.88;1.90;;;;;;;17.21;50.74;100085.75;5116157;27;20964;-60
2022/12/26 10:29:04;;;;;;;5.20;1.55;;;;;;;16.99;47.76;100082.00;5060930;27;20456;-60
2022/12/26 10:34:36;;;;;;;3.15;1.25;;;;;;;17.07;48.72;100087.91;5084751;27;20741;-59
2022/12/26 10:37:14;;;;;;;5.97;1.55;;;;;;;17.06;48.79;100088.81;5054324;28;20052;-60
2022/12/26 10:45:14;;;;;;;7.57;0.80;;;;;;;16.26;47.31;100085.72;5028155;27;20409;-61
2022/12/26 10:47:44;;;;;;;4.50;1.08;;;;;;;15.77;48.17;100100.81;5017587;28;20049;-62
2022/12/26 10:50:18;;;;;;;2.13;0.77;;;;;;;14.94;48.51;100091.28;5014169;28;20134;-60
2022/12/26 10:52:53;;;;;;;5.60;1.02;;;;;;;14.35;50.35;100099.28;5021471;28;20067;-61
2022/12/26 10:55:25;;;;;;;2.60;0.65;;;;;;;13.86;50.99;100091.41;5017729;28;20104;-59
2022/12/26 10:58:05;;;;;;;2.15;0.60;;;;;;;13.36;51.75;100094.69;5016960;28;20045;-60
2022/12/26 11:00:34;;;;;;;7.85;1.35;;;;;;;13.02;52.04;100100.31;5016352;28;20064;-60
2022/12/26 11:03:05;;;;;;;4.97;1.05;;;;;;;12.84;52.37;100104.00;5009918;28;20046;-60
2022/12/26 11:05:35;;;;;;;6.60;1.40;;;;;;;12.48;52.52;100091.38;5010716;28;20127;-59
2022/12/26 11:11:07;;;;;;;6.82;1.80;;;;;;;11.65;54.50;100099.78;5012384;27;20399;-60
2022/12/26 11:13:38;;;;;;;3.97;1.23;;;;;;;11.32;54.67;100099.97;4993992;28;20050;-61
2022/12/26 11:16:07;;;;;;;4.10;1.75;;;;;;;10.98;54.96;100097.53;5005552;28;20153;-60
2022/12/26 11:24:16;;;;;;;4.20;1.10;;;;;;;10.44;56.31;100101.09;5046826;28;21034;-61
2022/12/26 11:26:43;;;;;;;4.95;1.23;;;;;;;10.40;57.10;100099.34;5003087;28;20053;-58
2022/12/26 11:29:15;;;;;;;2.20;0.77;;;;;;;10.21;57.00;100098.53;4999741;28;20637;-59
2022/12/26 11:31:55;;;;;;;4.88;0.82;;;;;;;10.08;57.25;100105.41;5002642;28;20494;-59
2022/12/26 11:34:33;;;;;;;5.03;1.23;;;;;;;10.05;57.94;100119.22;4992802;28;20050;-60
2022/12/26 11:37:00;;;;;;;4.32;1.15;;;;;;;10.16;58.45;100122.69;5005694;28;20062;-60
2022/12/26 11:39:31;;;;;;;6.43;1.48;;;;;;;10.39;58.41;100115.75;4994135;28;20149;-60
2022/12/26 11:41:58;;;;;;;7.63;1.48;;;;;;;10.45;58.15;100115.81;5004376;28;20085;-60
2022/12/26 11:44:35;;;;;;;3.58;0.90;;;;;;;10.51;57.73;100115.78;5001587;28;20088;-60
2022/12/26 11:47:10;;;;;;;;;;;;;;;10.40;57.06;100110.59;5005436;28;20046;-60
2022/12/26 11:49:58;;;;;;;2.30;0.80;;;;;;;10.39;57.58;100114.03;5007587;28;19934;-61
2022/12/26 11:55:35;;;;;;;6.25;3.03;;;;;;;10.25;58.13;100129.59;5028836;27;20409;-60
2022/12/26 12:01:04;;;;;;;9.30;2.03;;;;;;;10.00;58.17;100119.22;5088589;27;20414;-59
2022/12/26 12:03:47;;;;;;;10.25;2.65;;;;;;;9.81;58.31;100120.06;5055299;28;20102;-60
2022/12/26 12:06:55;;;;;;;20.60;5.60;;;;;;;9.66;59.32;100116.56;5056404;28;20346;-59
2022/12/26 12:20:38;;;;;;;8.20;2.20;;;;;;;8.79;60.43;100118.84;5025008;27;20406;-60
2022/12/26 12:23:22;;;;;;;5.90;3.40;;;;;;;8.64;60.64;100117.88;5015713;28;20129;-57
2022/12/26 12:26:00;;;;;;;3.97;1.73;;;;;;;8.48;60.59;100111.75;5014725;28;20441;-60
2022/12/26 12:31:38;;;;;;;7.32;1.52;;;;;;;8.23;61.62;100112.41;5036692;28;20396;-59
2022/12/26 12:37:14;;;;;;;15.95;3.70;;;;;;;8.05;61.47;100114.84;5063489;28;20386;-59
2022/12/26 12:40:21;;;;;;;6.20;1.20;;;;;;;7.96;62.53;100113.91;5019959;28;20494;-60
2022/12/26 12:45:35;;;;;;;4.20;2.70;;;;;;;7.83;63.15;100106.88;5056725;28;20399;-61
2022/12/26 13:01:36;;;;;;;5.13;2.00;;;;;;;7.53;63.36;100105.75;5036737;28;20394;-61
2022/12/26 13:09:33;;;;;;;14.25;4.05;;;;;;;7.74;62.55;100123.16;5053201;27;20417;-61
2022/12/26 13:12:05;;;;;;;7.05;2.53;;;;;;;7.42;63.06;100127.09;5018163;28;20115;-60
2022/12/26 13:14:39;;;;;;;9.32;3.53;;;;;;;7.34;63.97;100123.59;5024710;28;20050;-60
2022/12/26 13:17:16;;;;;;;3.92;1.92;;;;;;;7.25;64.39;100121.75;5021147;28;20045;-60
2022/12/26 13:20:11;;;;;;;4.70;1.90;;;;;;;7.12;63.28;100113.00;5018541;28;20401;-59
2022/12/26 13:25:43;;;;;;;7.03;2.22;;;;;;;7.05;64.49;100106.03;5014958;28;20049;-60
2022/12/26 13:28:18;;;;;;;5.43;1.00;;;;;;;7.03;64.38;100107.75;5017447;28;20544;-59
2022/12/26 13:30:52;;;;;;;6.95;1.13;;;;;;;6.99;64.20;100100.84;5019469;28;20099;-60
2022/12/26 13:33:19;;;;;;;5.38;1.38;;;;;;;6.91;65.26;100106.75;5019733;28;20060;-60
2022/12/26 13:39:06;;;;;;;7.43;3.20;;;;;;;6.79;64.74;100104.00;5080981;27;20126;-59
2022/12/26 13:46:59;;;;;;;4.68;1.42;;;;;;;6.74;64.62;100115.94;5031800;27;20390;-60
2022/12/26 13:49:35;;;;;;;7.75;1.85;;;;;;;6.68;64.98;100122.72;5003431;28;20069;-57
2022/12/26 14:00:23;;;;;;;9.43;3.15;;;;;;;6.93;64.74;100120.50;5042397;27;20397;-59
2022/12/26 14:13:57;;;;;;;5.15;2.17;;;;;;;6.42;66.41;100115.47;5022248;27;20395;-59
2022/12/26 14:16:51;;;;;;;11.27;3.08;;;;;;;6.39;66.70;100120.56;4985251;28;20101;-61
2022/12/26 14:22:20;;;;;;;9.50;2.55;;;;;;;6.68;65.83;100117.59;5042893;27;21097;-61
2022/12/26 14:25:27;;;;;;;6.22;1.42;;;;;;;6.39;67.17;100125.72;5016044;28;20579;-59
2022/12/26 14:28:25;;;;;;;5.65;1.25;;;;;;;6.29;66.98;100123.84;5008879;28;20141;-60
2022/12/26 14:33:35;;;;;;;5.90;2.78;;;;;;;6.26;66.51;100134.09;5113849;27;20416;-60
2022/12/26 14:36:18;;;;;;;5.18;2.92;;;;;;;6.21;67.58;100125.44;5102677;28;20040;-58
2022/12/26 14:38:53;;;;;;;2.83;1.50;;;;;;;6.18;67.41;100131.38;5098494;28;20576;-58
2022/12/26 14:47:01;;;;;;;2.35;0.50;;;;;;;6.03;66.79;100143.16;5011482;28;20427;-60
2022/12/26 14:52:31;;;;;;;4.30;1.98;;;;;;;5.98;66.68;100154.19;5060721;27;20402;-58
2022/12/26 14:54:58;;;;;;;5.00;2.22;;;;;;;5.96;67.72;100151.56;5023955;28;20085;-59
2022/12/26 15:05:38;;;;;;;2.90;1.15;;;;;;;5.84;68.05;100167.63;5010353;27;20422;-59
2022/12/26 15:11:17;;;;;;;2.15;0.35;;;;;;;5.74;67.89;100176.03;5023499;28;20413;-58
2022/12/26 15:25:24;;;;;;;3.38;1.23;;;;;;;5.63;68.22;100186.94;5076911;27;20390;-61
2022/12/26 15:31:07;;;;;;;5.63;2.53;;;;;;;5.60;68.14;100198.84;5050302;27;20403;-59
2022/12/26 15:33:42;;;;;;;2.83;2.40;;;;;;;5.58;68.45;100210.81;5013745;28;20056;-61
2022/12/26 15:41:45;;;;;;;4.28;1.13;;;;;;;5.45;69.02;100217.41;5013344;28;20410;-59
2022/12/26 15:44:24;;;;;;;4.20;1.23;;;;;;;5.42;69.28;100219.91;5008707;28;20117;-58
2022/12/26 15:53:10;;;;;;;1.90;1.27;;;;;;;5.25;68.78;100207.56;5073264;27;20963;-58
2022/12/26 16:01:10;;;;;;;4.30;2.50;;;;;;;5.22;68.79;100217.78;5078540;27;20395;-60
2022/12/26 16:11:41;;;;;;;5.60;1.10;;;;;;;5.03;69.72;100216.50;5002191;27;20418;-60
2022/12/26 16:14:22;;;;;;;3.80;0.80;;;;;;;4.97;69.32;100223.22;4995845;28;20078;-59
2022/12/26 16:16:51;;;;;;;5.22;0.95;;;;;;;4.93;69.25;100226.53;4994510;28;20070;-61
2022/12/26 16:19:22;;;;;;;4.18;0.80;;;;;;;4.91;69.57;100223.09;4996710;28;20516;-60
2022/12/26 16:24:42;;;;;;;4.53;0.80;;;;;;;4.82;70.43;100236.56;5006846;28;20062;-59
2022/12/26 16:27:15;;;;;;;3.92;1.13;;;;;;;4.77;69.87;100238.16;4995263;28;20453;-59
2022/12/26 16:29:50;;;;;;;3.65;1.00;;;;;;;4.76;70.43;100244.09;4993597;28;20046;-59
2022/12/26 16:32:22;;;;;;;1.80;0.70;;;;;;;4.72;70.66;100243.19;4993590;28;20065;-59
2022/12/26 16:34:49;;;;;;;2.53;1.05;;;;;;;4.70;70.21;100249.97;4990282;28;20074;-59
2022/12/26 16:37:20;;;;;;;3.08;0.75;;;;;;;4.69;70.97;100255.06;4996063;28;20070;-60
2022/12/26 16:45:34;;;;;;;2.08;1.00;;;;;;;4.79;70.91;100264.72;5048801;28;20997;-58
2022/12/26 16:48:05;;;;;;;2.65;0.98;;;;;;;4.73;70.79;100269.72;4991441;28;20050;-60
2022/12/26 16:50:34;;;;;;;4.90;1.23;;;;;;;4.68;71.63;100266.16;4996787;28;20073;-59
2022/12/26 16:53:11;;;;;;;2.20;0.73;;;;;;;4.63;72.08;100258.34;4999198;28;20522;-60
2022/12/26 16:58:24;;;;;;;5.85;0.90;;;;;;;4.59;71.69;100266.81;5036598;28;20384;-59
2022/12/26 17:06:25;;;;;;;2.88;1.58;;;;;;;4.52;71.78;100276.03;5051810;28;20389;-59
2022/12/26 17:08:53;;;;;;;8.43;1.02;;;;;;;4.47;72.18;100273.38;5019310;28;20406;-59
2022/12/26 17:11:31;;;;;;;6.53;2.20;;;;;;;4.46;71.64;100281.00;5024359;28;20136;-60
2022/12/26 17:13:59;;;;;;;7.63;3.08;;;;;;;4.46;72.02;100275.88;5018377;28;20085;-61
2022/12/26 17:16:29;;;;;;;3.13;1.92;;;;;;;4.43;72.05;100270.66;5019864;28;20073;-58
2022/12/26 17:19:08;;;;;;;5.57;2.20;;;;;;;4.40;72.34;100275.72;5018690;28;20052;-59
2022/12/26 17:21:35;;;;;;;4.82;2.30;;;;;;;4.39;71.87;100279.13;5014699;28;20099;-60
2022/12/26 17:26:40;;;;;;;4.93;1.90;;;;;;;4.82;71.02;100277.63;5000376;28;20429;-58
2022/12/26 17:29:35;;;;;;;5.28;1.52;;;;;;;4.46;72.23;100278.44;4990073;28;20043;-58
2022/12/26 17:32:07;;;;;;;5.03;1.05;;;;;;;4.40;72.29;100281.72;5014035;28;20038;-60